createdAt,value
2018-08-19T00:00:37.859Z,100.00
2018-08-19T00:02:05.446Z,100.00
2018-08-19T00:03:37.038Z,100.00
2018-08-19T00:05:04.498Z,100.00
2018-08-19T00:06:31.821Z,100.00
2018-08-19T00:07:59.457Z,100.00
2018-08-19T00:09:22.669Z,100.00
2018-08-19T00:10:50.403Z,100.00
2018-08-19T00:12:21.852Z,100.00
2018-08-19T00:13:49.161Z,100.00
2018-08-19T00:15:11.479Z,100.00
2018-08-19T00:16:41.797Z,100.00
2018-08-19T00:18:05.250Z,100.00
2018-08-19T00:19:31.549Z,100.00
2018-08-19T00:20:59.054Z,100.00
2018-08-19T00:22:26.548Z,100.00
2018-08-19T00:23:54.102Z,100.00
2018-08-19T00:25:19.341Z,100.00
2018-08-19T00:26:47.754Z,100.00
2018-08-19T00:28:17.522Z,100.00
2018-08-19T00:29:45.000Z,100.00
2018-08-19T00:31:08.500Z,100.00
2018-08-19T00:34:07.274Z,100.00
2018-08-19T00:35:33.452Z,100.00
2018-08-19T00:37:00.709Z,100.00
2018-08-19T00:38:28.122Z,100.00
2018-08-19T00:39:51.699Z,100.00
2018-08-19T00:41:22.750Z,100.00
2018-08-19T00:42:48.954Z,100.00
2018-08-19T00:44:12.539Z,100.00
2018-08-19T00:45:38.605Z,100.00
2018-08-19T00:47:06.033Z,100.00
2018-08-19T00:48:33.593Z,100.00
2018-08-19T00:50:00.148Z,100.00
2018-08-19T00:51:31.591Z,100.00
2018-08-19T00:52:54.946Z,100.00
2018-08-19T00:54:22.315Z,100.00
2018-08-19T00:55:53.866Z,100.00
2018-08-19T00:57:16.892Z,100.00
2018-08-19T00:58:48.384Z,100.00
2018-08-19T01:00:11.729Z,100.00
2018-08-19T01:01:43.283Z,100.00
2018-08-19T01:03:06.713Z,100.00
2018-08-19T01:04:38.179Z,100.00
2018-08-19T01:06:01.547Z,100.00
2018-08-19T01:07:33.143Z,100.00
2018-08-19T01:09:00.691Z,100.00
2018-08-19T01:10:28.138Z,100.00
2018-08-19T01:11:51.598Z,100.00
2018-08-19T01:13:17.752Z,100.00
2018-08-19T01:14:48.070Z,100.00
2018-08-19T01:16:11.444Z,100.00
2018-08-19T01:17:43.059Z,100.00
2018-08-19T01:19:09.317Z,100.00
2018-08-19T01:20:36.788Z,100.00
2018-08-19T01:21:59.895Z,100.00
2018-08-19T01:23:27.190Z,100.00
2018-08-19T01:24:58.726Z,100.00
2018-08-19T01:26:25.138Z,100.00
2018-08-19T01:27:47.849Z,100.00
2018-08-19T01:29:13.882Z,100.00
2018-08-19T01:30:45.335Z,100.00
2018-08-19T01:32:08.658Z,100.00
2018-08-19T01:33:40.079Z,100.00
2018-08-19T01:35:06.454Z,100.00
2018-08-19T01:36:33.832Z,100.00
2018-08-19T01:37:56.039Z,100.00
2018-08-19T01:39:22.499Z,100.00
2018-08-19T01:40:54.054Z,100.00
2018-08-19T01:42:21.511Z,100.00
2018-08-19T01:43:45.005Z,100.00
2018-08-19T01:45:16.429Z,100.00
2018-08-19T01:46:39.959Z,100.00
2018-08-19T01:48:07.181Z,100.00
2018-08-19T01:49:34.580Z,100.00
2018-08-19T01:51:06.169Z,100.00
2018-08-19T01:52:32.502Z,100.00
2018-08-19T01:53:55.005Z,100.00
2018-08-19T01:55:22.408Z,100.00
2018-08-19T01:56:53.712Z,100.00
2018-08-19T01:58:21.540Z,100.00
2018-08-19T01:59:44.046Z,100.00
2018-08-19T02:01:15.627Z,100.00
2018-08-19T02:02:42.955Z,100.00
2018-08-19T02:04:06.550Z,100.00
2018-08-19T02:05:33.103Z,100.00
2018-08-19T02:07:04.817Z,100.00
2018-08-19T02:08:27.907Z,100.00
2018-08-19T02:09:59.315Z,100.00
2018-08-19T02:11:22.524Z,100.00
2018-08-19T02:12:57.321Z,100.00
2018-08-19T02:14:20.592Z,100.00
2018-08-19T02:15:44.999Z,100.00
2018-08-19T02:17:10.218Z,100.00
2018-08-19T02:18:41.628Z,100.00
2018-08-19T02:20:02.684Z,100.00
2018-08-19T02:21:34.067Z,100.00
2018-08-19T02:23:01.498Z,100.00
2018-08-19T02:24:27.768Z,100.00
2018-08-19T02:25:51.187Z,100.00
2018-08-19T02:27:22.079Z,100.00
2018-08-19T02:28:45.509Z,100.00
2018-08-19T02:30:16.076Z,100.00
2018-08-19T02:31:39.243Z,100.00
2018-08-19T02:33:06.885Z,100.00
2018-08-19T02:34:34.400Z,100.00
2018-08-19T02:36:05.621Z,100.00
2018-08-19T02:37:29.079Z,100.00
2018-08-19T02:38:56.605Z,100.00
2018-08-19T02:40:27.867Z,100.00
2018-08-19T02:41:51.447Z,100.00
2018-08-19T02:43:18.799Z,100.00
2018-08-19T02:44:50.133Z,100.00
2018-08-19T02:46:17.549Z,100.00
2018-08-19T02:47:45.000Z,100.00
2018-08-19T02:49:08.276Z,100.00
2018-08-19T02:50:35.910Z,100.00
2018-08-19T02:52:02.285Z,100.00
2018-08-19T02:53:33.848Z,100.00
2018-08-19T02:55:01.359Z,100.00
2018-08-19T02:56:28.528Z,100.00
2018-08-19T02:57:56.726Z,100.00
2018-08-19T03:00:44.517Z,100.00
2018-08-19T03:02:11.929Z,100.00
2018-08-19T03:03:43.420Z,100.00
2018-08-19T03:05:10.731Z,100.00
2018-08-19T03:06:32.971Z,100.00
2018-08-19T03:08:00.235Z,100.00
2018-08-19T03:09:31.914Z,100.00
2018-08-19T03:10:59.365Z,100.00
2018-08-19T03:12:21.972Z,100.00
2018-08-19T03:13:49.389Z,100.00
2018-08-19T03:15:20.814Z,100.00
2018-08-19T03:16:48.329Z,100.00
2018-08-19T03:18:15.758Z,100.00
2018-08-19T03:19:39.227Z,100.00
2018-08-19T03:21:05.620Z,100.00
2018-08-19T03:22:35.837Z,100.00
2018-08-19T03:23:58.228Z,100.00
2018-08-19T03:25:29.571Z,100.00
2018-08-19T03:26:51.856Z,100.00
2018-08-19T03:28:23.367Z,100.00
2018-08-19T03:29:50.639Z,100.00
2018-08-19T03:31:18.161Z,100.00
2018-08-19T03:32:45.658Z,100.00
2018-08-19T03:34:07.688Z,100.00
2018-08-19T03:35:39.185Z,100.00
2018-08-19T03:37:02.469Z,100.00
2018-08-19T03:38:28.681Z,100.00
2018-08-19T03:40:00.355Z,100.00
2018-08-19T03:41:22.449Z,100.00
2018-08-19T03:49:11.734Z,100.00
2018-08-19T03:54:40.960Z,100.00
2018-08-19T03:56:03.873Z,100.00
2018-08-19T03:57:31.111Z,100.00
2018-08-19T03:59:02.534Z,100.00
2018-08-19T04:00:25.817Z,100.00
2018-08-19T04:01:57.327Z,100.00
2018-08-19T04:03:24.165Z,100.00
2018-08-19T04:04:50.462Z,100.00
2018-08-19T04:06:16.844Z,100.00
2018-08-19T04:07:42.787Z,100.00
2018-08-19T04:09:06.256Z,100.00
2018-08-19T04:10:33.821Z,100.00
2018-08-19T04:12:05.282Z,100.00
2018-08-19T04:13:32.644Z,100.00
2018-08-19T04:15:00.067Z,100.00
2018-08-19T04:16:27.469Z,100.00
2018-08-19T04:17:50.957Z,100.00
2018-08-19T04:19:18.306Z,100.00
2018-08-19T04:20:49.744Z,100.00
2018-08-19T04:22:12.120Z,100.00
2018-08-19T04:23:39.770Z,100.00
2018-08-19T04:25:11.248Z,100.00
2018-08-19T04:26:37.874Z,100.00
2018-08-19T04:28:04.316Z,100.00
2018-08-19T04:29:30.368Z,100.00
2018-08-19T04:30:57.679Z,100.00
2018-08-19T04:32:26.115Z,100.00
2018-08-19T04:33:52.566Z,100.00
2018-08-19T04:35:20.049Z,100.00
2018-08-19T04:38:53.498Z,100.00
2018-08-19T04:50:26.786Z,100.00
2018-08-19T04:51:52.451Z,100.00
2018-08-19T04:53:23.746Z,100.00
2018-08-19T04:54:50.427Z,100.00
2018-08-19T04:56:12.551Z,100.00
2018-08-19T04:57:39.929Z,100.00
2018-08-19T04:59:06.408Z,100.00
2018-08-19T05:00:37.815Z,100.00
2018-08-19T05:02:05.053Z,100.00
2018-08-19T05:03:27.213Z,100.00
2018-08-19T05:05:52.809Z,100.00
2018-08-19T05:07:22.920Z,100.00
2018-08-19T05:10:27.015Z,100.00
2018-08-19T05:12:02.331Z,100.00
2018-08-19T05:13:29.520Z,100.00
2018-08-19T05:14:52.478Z,100.00
2018-08-19T05:16:23.875Z,100.00
2018-08-19T05:17:50.847Z,100.00
2018-08-19T05:19:14.210Z,100.00
2018-08-19T05:20:45.854Z,100.00
2018-08-19T05:22:09.301Z,100.00
2018-08-19T05:26:35.672Z,100.00
2018-08-19T05:28:01.972Z,100.00
2018-08-19T05:29:25.434Z,100.00
2018-08-19T05:30:51.811Z,100.00
2018-08-19T05:33:45.328Z,100.00
2018-08-19T05:35:11.713Z,100.00
2018-08-19T05:36:38.849Z,100.00
2018-08-19T05:38:10.100Z,100.00
2018-08-19T05:39:37.537Z,100.00
2018-08-19T05:41:01.030Z,100.00
2018-08-19T05:42:31.310Z,100.00
2018-08-19T05:43:54.659Z,100.00
2018-08-19T05:45:25.153Z,100.00
2018-08-19T05:46:52.058Z,100.00
2018-08-19T05:48:15.421Z,100.00
2018-08-19T05:49:47.215Z,100.00
2018-08-19T05:51:09.402Z,100.00
2018-08-19T05:52:40.998Z,100.00
2018-08-19T05:54:04.535Z,100.00
2018-08-19T05:55:35.946Z,100.00
2018-08-19T05:57:03.433Z,100.00
2018-08-19T05:58:30.856Z,100.00
2018-08-19T05:59:58.125Z,100.00
2018-08-19T06:01:21.747Z,100.00
2018-08-19T06:02:49.281Z,100.00
2018-08-19T06:04:16.546Z,100.00
2018-08-19T06:05:44.233Z,100.00
2018-08-19T06:07:11.582Z,100.00
2018-08-19T06:08:43.021Z,100.00
2018-08-19T06:10:09.014Z,100.00
2018-08-19T06:11:37.483Z,100.00
2018-08-19T06:12:59.918Z,100.00
2018-08-19T06:14:31.488Z,100.00
2018-08-19T06:15:55.077Z,100.00
2018-08-19T06:17:26.607Z,100.00
2018-08-19T06:18:49.950Z,100.00
2018-08-19T06:20:18.565Z,100.00
2018-08-19T06:21:44.139Z,100.00
2018-08-19T06:23:11.701Z,100.00
2018-08-19T06:24:42.465Z,100.00
2018-08-19T06:26:09.948Z,100.00
2018-08-19T06:27:37.319Z,100.00
2018-08-19T06:28:59.948Z,100.00
2018-08-19T06:30:27.318Z,100.00
2018-08-19T06:31:55.113Z,100.00
2018-08-19T06:33:26.583Z,100.00
2018-08-19T06:34:53.387Z,100.00
2018-08-19T06:36:16.423Z,100.00
2018-08-19T06:37:48.033Z,100.00
2018-08-19T06:39:14.562Z,100.00
2018-08-19T06:40:38.032Z,100.00
2018-08-19T06:42:05.640Z,100.00
2018-08-19T06:43:33.207Z,100.00
2018-08-19T06:45:05.613Z,100.00
2018-08-19T06:46:32.166Z,100.00
2018-08-19T06:47:55.785Z,100.00
2018-08-19T06:49:22.884Z,100.00
2018-08-19T06:50:54.455Z,100.00
2018-08-19T06:52:17.766Z,100.00
2018-08-19T06:53:45.491Z,100.00
2018-08-19T06:55:11.598Z,100.00
2018-08-19T06:56:37.849Z,100.00
2018-08-19T06:58:09.151Z,100.00
2018-08-19T06:59:35.037Z,100.00
2018-08-19T07:00:58.543Z,100.00
2018-08-19T07:02:26.135Z,100.00
2018-08-19T07:03:53.734Z,100.00
2018-08-19T07:05:20.214Z,100.00
2018-08-19T07:06:47.727Z,100.00
2018-08-19T07:08:15.157Z,100.00
2018-08-19T07:09:46.804Z,100.00
2018-08-19T07:11:13.317Z,100.00
2018-08-19T07:12:36.675Z,100.00
2018-08-19T07:14:04.028Z,100.00
2018-08-19T07:15:31.673Z,100.00
2018-08-19T07:16:58.960Z,100.00
2018-08-19T07:18:25.568Z,100.00
2018-08-19T07:19:57.119Z,100.00
2018-08-19T07:21:23.824Z,100.00
2018-08-19T07:22:46.816Z,100.00
2018-08-19T07:24:14.516Z,100.00
2018-08-19T07:25:41.221Z,100.00
2018-08-19T07:27:12.658Z,100.00
2018-08-19T07:28:40.258Z,100.00
2018-08-19T07:30:07.842Z,100.00
2018-08-19T07:31:30.597Z,100.00
2018-08-19T07:32:56.840Z,100.00
2018-08-19T07:34:28.243Z,100.00
2018-08-19T07:35:51.523Z,100.00
2018-08-19T07:37:21.916Z,100.00
2018-08-19T07:38:44.460Z,100.00
2018-08-19T07:40:14.719Z,100.00
2018-08-19T07:41:38.219Z,100.00
2018-08-19T07:43:05.107Z,100.00
2018-08-19T07:44:32.758Z,100.00
2018-08-19T07:46:02.665Z,100.00
2018-08-19T07:47:26.251Z,100.00
2018-08-19T07:48:53.787Z,100.00
2018-08-19T07:50:21.480Z,100.00
2018-08-19T07:51:48.442Z,100.00
2018-08-19T07:53:15.629Z,100.00
2018-08-19T07:54:43.209Z,100.00
2018-08-19T07:56:10.862Z,100.00
2018-08-19T07:57:38.530Z,100.00
2018-08-19T07:59:10.163Z,100.00
2018-08-19T08:00:33.684Z,100.00
2018-08-19T08:02:01.278Z,100.00
2018-08-19T08:03:28.659Z,100.00
2018-08-19T08:05:00.290Z,100.00
2018-08-19T08:06:27.842Z,100.00
2018-08-19T08:07:55.220Z,100.00
2018-08-19T08:09:18.734Z,100.00
2018-08-19T08:10:50.346Z,100.00
2018-08-19T08:12:18.893Z,100.00
2018-08-19T08:13:44.552Z,100.00
2018-08-19T08:15:07.506Z,100.00
2018-08-19T08:16:35.061Z,100.00
2018-08-19T08:18:05.652Z,100.00
2018-08-19T08:19:29.197Z,100.00
2018-08-19T08:20:56.859Z,100.00
2018-08-19T08:22:24.076Z,100.00
2018-08-19T08:23:55.611Z,100.00
2018-08-19T08:25:19.252Z,100.00
2018-08-19T08:26:46.142Z,100.00
2018-08-19T08:28:17.857Z,100.00
2018-08-19T08:29:43.958Z,100.00
2018-08-19T08:31:11.571Z,100.00
2018-08-19T08:32:35.068Z,100.00
2018-08-19T08:34:02.795Z,100.00
2018-08-19T08:35:33.433Z,100.00
2018-08-19T08:36:56.695Z,100.00
2018-08-19T08:38:27.267Z,100.00
2018-08-19T08:39:50.164Z,100.00
2018-08-19T08:41:17.668Z,100.00
2018-08-19T08:42:45.240Z,100.00
2018-08-19T08:44:12.773Z,100.00
2018-08-19T08:45:40.285Z,100.00
2018-08-19T08:47:11.986Z,100.00
2018-08-19T08:48:39.704Z,100.00
2018-08-19T08:50:03.245Z,100.00
2018-08-19T08:51:34.288Z,100.00
2018-08-19T08:52:57.007Z,100.00
2018-08-19T08:54:24.362Z,100.00
2018-08-19T08:55:51.837Z,100.00
2018-08-19T08:57:19.283Z,100.00
2018-08-19T08:58:50.443Z,100.00
2018-08-19T09:00:14.142Z,100.00
2018-08-19T09:01:45.392Z,100.00
2018-08-19T09:03:09.115Z,100.00
2018-08-19T09:04:36.485Z,100.00
2018-08-19T09:06:04.105Z,100.00
2018-08-19T09:07:31.701Z,100.00
2018-08-19T09:08:59.173Z,100.00
2018-08-19T09:10:30.704Z,100.00
2018-08-19T09:11:54.441Z,100.00
2018-08-19T09:13:21.989Z,100.00
2018-08-19T09:14:53.346Z,100.00
2018-08-19T09:16:16.924Z,100.00
2018-08-19T09:17:44.463Z,100.00
2018-08-19T09:19:11.996Z,100.00
2018-08-19T09:20:43.302Z,100.00
2018-08-19T09:22:06.979Z,100.00
2018-08-19T09:23:34.523Z,100.00
2018-08-19T09:25:01.457Z,100.00
2018-08-19T09:26:33.055Z,100.00
2018-08-19T09:27:56.248Z,100.00
2018-08-19T09:29:23.282Z,100.00
2018-08-19T09:30:50.965Z,100.00
2018-08-19T09:32:18.093Z,100.00
2018-08-19T09:33:45.862Z,100.00
2018-08-19T09:35:13.588Z,100.00
2018-08-19T09:36:40.966Z,100.00
2018-08-19T09:38:12.364Z,100.00
2018-08-19T09:39:36.039Z,100.00
2018-08-19T09:41:02.918Z,100.00
2018-08-19T09:42:30.571Z,100.00
2018-08-19T09:43:58.252Z,100.00
2018-08-19T09:45:29.617Z,100.00
2018-08-19T09:46:53.133Z,100.00
2018-08-19T09:48:24.661Z,100.00
2018-08-19T09:49:51.119Z,100.00
2018-08-19T09:51:14.532Z,100.00
2018-08-19T09:52:45.103Z,100.00
2018-08-19T09:54:08.623Z,100.00
2018-08-19T09:55:40.234Z,100.00
2018-08-19T09:57:03.819Z,100.00
2018-08-19T09:58:31.414Z,100.00
2018-08-19T10:00:02.973Z,100.00
2018-08-19T10:01:29.728Z,100.00
2018-08-19T10:02:53.192Z,98.16
2018-08-19T10:04:24.813Z,98.19
2018-08-19T10:05:47.799Z,99.56
2018-08-19T10:07:14.868Z,98.46
2018-08-19T10:08:42.366Z,98.78
2018-08-19T10:10:10.069Z,99.07
2018-08-19T10:13:04.869Z,100.00
2018-08-19T10:14:32.489Z,97.34
2018-08-19T10:15:59.453Z,99.31
2018-08-19T10:17:30.233Z,98.81
2018-08-19T10:18:53.777Z,96.14
2018-08-19T10:20:24.339Z,96.85
2018-08-19T10:21:47.394Z,97.14
2018-08-19T10:23:18.113Z,94.88
2018-08-19T10:24:41.564Z,95.32
2018-08-19T10:26:09.191Z,93.89
2018-08-19T10:27:40.835Z,92.70
2018-08-19T10:29:04.519Z,94.84
2018-08-19T10:30:36.149Z,98.53
2018-08-19T10:31:59.319Z,98.33
2018-08-19T10:33:30.935Z,94.14
2018-08-19T10:34:54.589Z,91.29
2018-08-19T10:36:22.051Z,92.91
2018-08-19T10:37:53.575Z,91.66
2018-08-19T10:39:20.215Z,94.15
2018-08-19T10:40:47.821Z,93.27
2018-08-19T10:42:11.423Z,92.49
2018-08-19T10:43:39.065Z,92.83
2018-08-19T10:45:06.672Z,93.82
2018-08-19T10:46:34.559Z,96.47
2018-08-19T10:48:06.078Z,91.76
2018-08-19T10:49:29.673Z,90.68
2018-08-19T10:50:57.351Z,92.25
2018-08-19T10:52:27.909Z,92.53
2018-08-19T10:53:55.378Z,93.05
2018-08-19T10:55:18.402Z,93.07
2018-08-19T10:56:45.845Z,95.85
2018-08-19T10:58:12.445Z,93.61
2018-08-19T10:59:40.146Z,92.74
2018-08-19T11:01:07.640Z,93.73
2018-08-19T11:02:39.264Z,95.31
2018-08-19T11:04:02.747Z,93.52
2018-08-19T11:05:30.278Z,96.03
2018-08-19T11:06:57.880Z,96.17
2018-08-19T11:08:29.540Z,94.63
2018-08-19T11:09:52.027Z,95.15
2018-08-19T11:11:19.413Z,96.49
2018-08-19T11:12:47.065Z,96.08
2018-08-19T11:14:18.651Z,96.35
2018-08-19T11:15:41.700Z,99.66
2018-08-19T11:17:09.253Z,98.44
2018-08-19T11:18:40.040Z,99.03
2018-08-19T11:20:03.681Z,97.28
2018-08-19T11:21:31.382Z,97.38
2018-08-19T11:23:02.820Z,97.08
2018-08-19T11:24:30.414Z,97.28
2018-08-19T11:25:57.980Z,98.15
2018-08-19T11:27:21.419Z,100.00
2018-08-19T11:28:48.916Z,98.18
2018-08-19T11:30:20.328Z,96.39
2018-08-19T11:31:44.047Z,96.84
2018-08-19T11:33:10.231Z,96.39
2018-08-19T11:34:38.013Z,95.86
2018-08-19T11:36:09.571Z,96.04
2018-08-19T11:37:33.256Z,97.51
2018-08-19T11:39:00.780Z,97.65
2018-08-19T11:40:28.415Z,99.73
2018-08-19T11:42:00.048Z,100.00
2018-08-19T11:43:27.545Z,98.31
2018-08-19T11:44:51.072Z,97.13
2018-08-19T11:46:18.516Z,94.26
2018-08-19T11:47:50.121Z,94.36
2018-08-19T11:49:13.704Z,90.58
2018-08-19T11:50:41.121Z,90.64
2018-08-19T11:52:05.446Z,88.05
2018-08-19T11:53:36.140Z,87.51
2018-08-19T11:55:03.282Z,88.58
2018-08-19T11:56:29.970Z,85.63
2018-08-19T11:57:57.564Z,84.64
2018-08-19T11:59:24.547Z,84.22
2018-08-19T12:00:52.099Z,84.50
2018-08-19T12:02:19.327Z,83.66
2018-08-19T12:03:46.912Z,83.19
2018-08-19T12:05:18.607Z,84.38
2018-08-19T12:06:42.339Z,83.88
2018-08-19T12:08:09.877Z,84.20
2018-08-19T12:09:41.468Z,83.85
2018-08-19T12:11:09.024Z,80.66
2018-08-19T12:12:32.749Z,81.23
2018-08-19T12:14:04.292Z,83.80
2018-08-19T12:15:31.913Z,80.87
2018-08-19T12:16:55.507Z,80.42
2018-08-19T12:18:26.329Z,80.34
2018-08-19T12:19:49.966Z,79.78
2018-08-19T12:21:17.381Z,76.33
2018-08-19T12:22:44.859Z,76.86
2018-08-19T12:24:12.675Z,78.64
2018-08-19T12:25:39.420Z,75.93
2018-08-19T12:27:11.072Z,73.43
2018-08-19T12:28:34.885Z,74.24
2018-08-19T12:30:05.236Z,76.55
2018-08-19T12:31:28.907Z,75.92
2018-08-19T12:32:56.654Z,76.03
2018-08-19T12:34:24.248Z,74.38
2018-08-19T12:35:51.862Z,74.49
2018-08-19T12:37:19.444Z,74.58
2018-08-19T12:38:46.962Z,72.70
2018-08-19T12:40:14.588Z,71.08
2018-08-19T12:41:42.110Z,69.58
2018-08-19T12:43:09.815Z,69.15
2018-08-19T12:44:40.397Z,69.86
2018-08-19T12:46:08.056Z,70.10
2018-08-19T12:47:31.637Z,68.72
2018-08-19T12:48:59.419Z,67.10
2018-08-19T12:50:27.075Z,66.04
2018-08-19T12:51:54.644Z,66.50
2018-08-19T12:53:26.382Z,66.08
2018-08-19T12:54:49.716Z,65.01
2018-08-19T12:56:17.343Z,67.02
2018-08-19T12:57:45.064Z,66.92
2018-08-19T12:59:16.668Z,68.31
2018-08-19T13:00:44.290Z,69.25
2018-08-19T13:02:11.230Z,67.40
2018-08-19T13:03:38.909Z,68.93
2018-08-19T13:05:02.704Z,68.03
2018-08-19T13:06:30.205Z,68.62
2018-08-19T13:07:57.694Z,68.20
2018-08-19T13:09:24.850Z,68.49
2018-08-19T13:10:52.392Z,68.39
2018-08-19T13:12:19.730Z,68.45
2018-08-19T13:13:46.642Z,68.70
2018-08-19T13:15:13.727Z,68.44
2018-08-19T13:16:41.613Z,68.19
2018-08-19T13:18:09.211Z,67.77
2018-08-19T13:19:36.280Z,68.19
2018-08-19T13:21:04.001Z,69.54
2018-08-19T13:22:30.824Z,67.50
2018-08-19T13:23:58.352Z,67.64
2018-08-19T13:25:29.879Z,69.42
2018-08-19T13:26:53.444Z,69.83
2018-08-19T13:28:25.111Z,67.82
2018-08-19T13:29:48.530Z,68.90
2018-08-19T13:31:16.054Z,70.32
2018-08-19T13:32:47.710Z,70.79
2018-08-19T13:34:11.483Z,68.03
2018-08-19T13:35:39.164Z,69.71
2018-08-19T13:37:06.995Z,70.45
2018-08-19T13:38:37.789Z,73.18
2018-08-19T13:40:01.403Z,75.66
2018-08-19T13:41:28.035Z,70.13
2018-08-19T13:42:59.514Z,72.65
2018-08-19T13:44:27.233Z,71.28
2018-08-19T13:45:50.639Z,76.25
2018-08-19T13:47:17.967Z,72.91
2018-08-19T13:48:45.129Z,72.41
2018-08-19T13:50:12.748Z,76.92
2018-08-19T13:51:40.410Z,72.60
2018-08-19T13:53:08.209Z,73.74
2018-08-19T13:54:39.742Z,70.56
2018-08-19T13:56:07.441Z,72.03
2018-08-19T13:57:34.180Z,72.77
2018-08-19T13:59:01.757Z,74.32
2018-08-19T14:00:25.431Z,71.38
2018-08-19T14:01:52.209Z,71.99
2018-08-19T14:03:19.390Z,71.79
2018-08-19T14:04:46.944Z,72.50
2018-08-19T14:06:14.673Z,71.92
2018-08-19T14:07:41.510Z,72.60
2018-08-19T14:09:12.028Z,78.07
2018-08-19T14:10:39.682Z,72.91
2018-08-19T14:12:06.491Z,80.56
2018-08-19T14:13:30.049Z,74.90
2018-08-19T14:14:57.659Z,75.95
2018-08-19T14:16:24.703Z,73.50
2018-08-19T14:17:52.191Z,75.08
2018-08-19T14:19:23.967Z,75.47
2018-08-19T14:20:47.587Z,75.73
2018-08-19T14:22:14.272Z,73.93
2018-08-19T14:23:44.937Z,73.00
2018-08-19T14:25:08.705Z,75.04
2018-08-19T14:26:40.316Z,74.49
2018-08-19T14:28:07.921Z,75.14
2018-08-19T14:29:35.447Z,76.22
2018-08-19T14:30:58.918Z,83.44
2018-08-19T14:32:26.705Z,84.79
2018-08-19T14:33:54.134Z,78.23
2018-08-19T14:35:21.505Z,77.75
2018-08-19T14:36:53.169Z,78.63
2018-08-19T14:38:16.552Z,78.19
2018-08-19T14:39:43.516Z,79.48
2018-08-19T14:41:10.576Z,83.96
2018-08-19T14:42:38.268Z,84.13
2018-08-19T14:44:09.021Z,79.96
2018-08-19T14:45:32.754Z,81.24
2018-08-19T14:46:59.074Z,80.38
2018-08-19T14:48:26.687Z,84.29
2018-08-19T14:49:58.401Z,80.84
2018-08-19T14:51:25.480Z,80.65
2018-08-19T14:52:52.771Z,78.73
2018-08-19T14:54:20.062Z,80.97
2018-08-19T14:55:43.739Z,84.92
2018-08-19T14:57:11.482Z,83.98
2018-08-19T14:58:42.126Z,82.20
2018-08-19T15:00:05.764Z,79.49
2018-08-19T15:01:32.360Z,79.61
2018-08-19T15:03:02.929Z,82.87
2018-08-19T15:04:26.532Z,78.82
2018-08-19T15:05:58.193Z,78.86
2018-08-19T15:07:25.756Z,83.56
2018-08-19T15:08:49.076Z,84.30
2018-08-19T15:10:19.990Z,86.58
2018-08-19T15:11:43.691Z,84.66
2018-08-19T15:13:15.316Z,81.70
2018-08-19T15:14:38.179Z,81.46
2018-08-19T15:16:06.008Z,81.00
2018-08-19T15:17:33.526Z,83.86
2018-08-19T15:19:00.249Z,81.08
2018-08-19T15:20:26.985Z,82.43
2018-08-19T15:21:53.669Z,82.54
2018-08-19T15:23:25.238Z,82.97
2018-08-19T15:24:52.925Z,87.85
2018-08-19T15:26:20.354Z,88.81
2018-08-19T15:27:47.005Z,83.78
2018-08-19T15:29:14.442Z,85.53
2018-08-19T15:30:41.472Z,83.53
2018-08-19T15:32:05.312Z,84.06
2018-08-19T15:33:32.934Z,90.22
2018-08-19T15:34:59.470Z,89.41
2018-08-19T15:36:27.135Z,88.50
2018-08-19T15:37:58.722Z,84.66
2018-08-19T15:39:26.283Z,90.08
2018-08-19T15:40:48.971Z,86.25
2018-08-19T15:42:20.241Z,84.70
2018-08-19T15:43:47.994Z,84.83
2018-08-19T15:45:11.745Z,85.70
2018-08-19T15:46:39.392Z,86.79
2018-08-19T15:48:11.182Z,87.04
2018-08-19T15:49:34.849Z,84.93
2018-08-19T15:51:02.480Z,81.70
2018-08-19T15:52:29.166Z,80.97
2018-08-19T15:54:00.062Z,80.53
2018-08-19T15:55:23.089Z,80.11
2018-08-19T15:56:54.767Z,81.36
2018-08-19T15:58:18.359Z,80.52
2018-08-19T15:59:45.948Z,80.50
2018-08-19T16:01:13.467Z,82.56
2018-08-19T16:02:45.113Z,84.58
2018-08-19T16:04:08.664Z,84.95
2018-08-19T16:05:40.455Z,89.30
2018-08-19T16:07:08.200Z,88.35
2018-08-19T16:08:31.947Z,88.39
2018-08-19T16:10:02.595Z,87.06
2018-08-19T16:11:30.136Z,87.36
2018-08-19T16:12:53.055Z,89.45
2018-08-19T16:14:24.586Z,87.53
2018-08-19T16:15:47.873Z,87.95
2018-08-19T16:17:19.451Z,91.48
2018-08-19T16:18:47.174Z,90.17
2018-08-19T16:20:10.749Z,92.94
2018-08-19T16:21:38.347Z,93.01
2018-08-19T16:23:06.078Z,88.08
2018-08-19T16:24:33.549Z,88.96
2018-08-19T16:26:01.186Z,89.39
2018-08-19T16:27:32.784Z,87.72
2018-08-19T16:28:56.179Z,88.58
2018-08-19T16:30:23.751Z,90.19
2018-08-19T16:31:51.504Z,88.52
2018-08-19T16:33:18.922Z,87.25
2018-08-19T16:34:50.439Z,87.06
2018-08-19T16:36:17.552Z,88.66
2018-08-19T16:37:45.096Z,93.34
2018-08-19T16:39:12.654Z,92.55
2018-08-19T16:40:36.212Z,90.15
2018-08-19T16:42:04.077Z,90.22
2018-08-19T16:43:31.643Z,91.14
2018-08-19T16:45:03.316Z,91.79
2018-08-19T16:46:30.985Z,91.97
2018-08-19T16:47:54.660Z,91.22
2018-08-19T16:49:22.199Z,91.01
2018-08-19T16:50:49.873Z,92.84
2018-08-19T16:52:17.434Z,93.00
2018-08-19T16:53:49.027Z,96.14
2018-08-19T16:55:16.648Z,97.62
2018-08-19T16:56:40.295Z,100.00
2018-08-19T16:58:11.941Z,100.00
2018-08-19T16:59:34.930Z,100.00
2018-08-19T17:01:02.645Z,100.00
2018-08-19T17:02:30.128Z,100.00
2018-08-19T17:03:57.333Z,100.00
2018-08-19T17:05:28.954Z,100.00
2018-08-19T17:06:56.532Z,100.00
2018-08-19T17:08:19.968Z,100.00
2018-08-19T17:09:51.671Z,100.00
2018-08-19T17:11:15.388Z,100.00
2018-08-19T17:12:46.923Z,100.00
2018-08-19T17:14:10.558Z,100.00
2018-08-19T17:15:37.827Z,100.00
2018-08-19T17:17:04.954Z,100.00
2018-08-19T17:18:36.574Z,100.00
2018-08-19T17:20:04.230Z,100.00
2018-08-19T17:21:27.845Z,100.00
2018-08-19T17:22:59.324Z,100.00
2018-08-19T17:24:26.969Z,100.00
2018-08-19T17:25:50.420Z,100.00
2018-08-19T17:27:17.812Z,100.00
2018-08-19T17:28:45.483Z,100.00
2018-08-19T17:30:13.058Z,100.00
2018-08-19T17:31:44.772Z,100.00
2018-08-19T17:33:08.661Z,100.00
2018-08-19T17:34:40.040Z,100.00
2018-08-19T17:36:07.610Z,100.00
2018-08-19T17:37:35.254Z,100.00
2018-08-19T17:39:02.902Z,100.00
2018-08-19T17:40:26.550Z,100.00
2018-08-19T17:41:57.572Z,100.00
2018-08-19T17:43:21.136Z,100.00
2018-08-19T17:44:52.631Z,100.00
2018-08-19T17:46:16.037Z,100.00
2018-08-19T17:47:43.877Z,100.00
2018-08-19T17:49:11.488Z,100.00
2018-08-19T17:50:46.084Z,100.00
2018-08-19T17:52:06.712Z,100.00
2018-08-19T17:53:33.982Z,100.00
2018-08-19T17:55:05.608Z,100.00
2018-08-19T17:56:29.330Z,100.00
2018-08-19T17:57:56.747Z,100.00
2018-08-19T17:59:28.455Z,100.00
2018-08-19T18:00:51.530Z,100.00
2018-08-19T18:02:22.911Z,100.00
2018-08-19T18:03:46.440Z,100.00
2018-08-19T18:05:17.600Z,100.00
2018-08-19T18:06:40.375Z,100.00
2018-08-19T18:08:07.278Z,100.00
2018-08-19T18:09:34.710Z,100.00
2018-08-19T18:11:02.241Z,100.00
2018-08-19T18:12:29.697Z,100.00
2018-08-19T18:13:57.244Z,100.00
2018-08-19T18:15:24.012Z,100.00
2018-08-19T18:16:55.539Z,100.00
2018-08-19T18:18:18.937Z,100.00
2018-08-19T18:19:50.196Z,100.00
2018-08-19T18:21:17.850Z,100.00
2018-08-19T18:22:41.083Z,100.00
2018-08-19T18:24:12.672Z,100.00
2018-08-19T18:25:40.284Z,100.00
2018-08-19T18:27:03.786Z,100.00
2018-08-19T18:28:31.522Z,100.00
2018-08-19T18:30:02.263Z,100.00
2018-08-19T18:31:25.943Z,100.00
2018-08-19T18:32:56.768Z,100.00
2018-08-19T18:34:24.062Z,100.00
2018-08-19T18:35:47.530Z,100.00
2018-08-19T18:37:18.613Z,100.00
2018-08-19T18:38:42.297Z,100.00
2018-08-19T18:40:09.812Z,100.00
2018-08-19T18:41:36.800Z,100.00
2018-08-19T18:43:04.476Z,100.00
2018-08-19T18:44:31.813Z,100.00
2018-08-19T18:45:59.250Z,100.00
2018-08-19T18:47:30.580Z,100.00
2018-08-19T18:48:57.519Z,100.00
2018-08-19T18:50:20.920Z,100.00
2018-08-19T18:51:48.461Z,100.00
2018-08-19T18:53:15.715Z,100.00
2018-08-19T18:54:43.265Z,100.00
2018-08-19T18:56:10.808Z,100.00